sensor_id;sensor_type;location;lat;lon;timestamp;pressure;altitude;pressure_sealevel;temperature;humidity
13476;BME280;6810;63.824;20.288;2023-07-30T00:00:56;99956.56;;;17.29;74.42
13476;BME280;6810;63.824;20.288;2023-07-30T00:03:24;99967.63;;;17.26;74.35
13476;BME280;6810;63.824;20.288;2023-07-30T00:05:52;99956.16;;;17.24;74.99
13476;BME280;6810;63.824;20.288;2023-07-30T00:08:20;99958.28;;;17.21;74.38
13476;BME280;6810;63.824;20.288;2023-07-30T00:10:47;99900.09;;;16.83;74.34
13476;BME280;6810;63.824;20.288;2023-07-30T00:13:14;99960.59;;;17.16;74.24
13476;BME280;6810;63.824;20.288;2023-07-30T00:15:41;99962.72;;;17.12;74.52
13476;BME280;6810;63.824;20.288;2023-07-30T00:18:08;99921.34;;;16.86;74.47
13476;BME280;6810;63.824;20.288;2023-07-30T00:20:36;99954.84;;;17.01;74.70
13476;BME280;6810;63.824;20.288;2023-07-30T00:23:03;99953.31;;;16.99;75.04
13476;BME280;6810;63.824;20.288;2023-07-30T00:25:30;99949.03;;;16.96;74.61
13476;BME280;6810;63.824;20.288;2023-07-30T00:27:57;99944.25;;;16.90;74.60
13476;BME280;6810;63.824;20.288;2023-07-30T00:30:24;99960.97;;;16.94;74.84
13476;BME280;6810;63.824;20.288;2023-07-30T00:32:52;99896.81;;;16.53;74.09
13476;BME280;6810;63.824;20.288;2023-07-30T00:35:19;99950.53;;;16.81;74.49
13476;BME280;6810;63.824;20.288;2023-07-30T00:37:46;99963.84;;;16.83;74.72
13476;BME280;6810;63.824;20.288;2023-07-30T00:40:13;99965.28;;;16.77;74.97
13476;BME280;6810;63.824;20.288;2023-07-30T00:42:40;99975.19;;;16.77;74.65
13476;BME280;6810;63.824;20.288;2023-07-30T00:45:08;99960.78;;;16.68;75.16
13476;BME280;6810;63.824;20.288;2023-07-30T00:47:37;99973.94;;;16.71;75.26
13476;BME280;6810;63.824;20.288;2023-07-30T00:50:07;99973.25;;;16.69;74.95
13476;BME280;6810;63.824;20.288;2023-07-30T00:52:34;99974.41;;;16.67;75.41
13476;BME280;6810;63.824;20.288;2023-07-30T00:55:02;99974.53;;;16.65;75.18
13476;BME280;6810;63.824;20.288;2023-07-30T00:57:30;99973.97;;;16.62;75.36
13476;BME280;6810;63.824;20.288;2023-07-30T00:59:58;99967.63;;;16.53;74.97
13476;BME280;6810;63.824;20.288;2023-07-30T01:02:26;99980.66;;;16.58;75.44
13476;BME280;6810;63.824;20.288;2023-07-30T01:04:54;99989.00;;;16.55;75.44
13476;BME280;6810;63.824;20.288;2023-07-30T01:07:22;99991.84;;;16.53;75.10
13476;BME280;6810;63.824;20.288;2023-07-30T01:09:49;99993.81;;;16.51;74.64
13476;BME280;6810;63.824;20.288;2023-07-30T01:12:16;99982.34;;;16.49;75.03
13476;BME280;6810;63.824;20.288;2023-07-30T01:14:45;99982.63;;;16.46;74.94
13476;BME280;6810;63.824;20.288;2023-07-30T01:17:13;99973.44;;;16.39;75.26
13476;BME280;6810;63.824;20.288;2023-07-30T01:19:40;99896.38;;;15.92;75.52
13476;BME280;6810;63.824;20.288;2023-07-30T01:22:27;99985.34;;;16.37;75.68
13476;BME280;6810;63.824;20.288;2023-07-30T01:25:16;99966.38;;;16.19;75.29
13476;BME280;6810;63.824;20.288;2023-07-30T01:28:04;99990.44;;;16.30;75.10
13476;BME280;6810;63.824;20.288;2023-07-30T01:30:52;99992.41;;;16.28;75.26
13476;BME280;6810;63.824;20.288;2023-07-30T01:33:40;100000.19;;;16.22;75.45
13476;BME280;6810;63.824;20.288;2023-07-30T01:36:28;100010.41;;;16.18;76.44
13476;BME280;6810;63.824;20.288;2023-07-30T01:39:15;100010.69;;;16.15;75.69
13476;BME280;6810;63.824;20.288;2023-07-30T01:42:03;100013.38;;;16.15;75.90
13476;BME280;6810;63.824;20.288;2023-07-30T01:44:50;100014.34;;;16.14;76.58
13476;BME280;6810;63.824;20.288;2023-07-30T01:47:37;100017.03;;;16.14;76.28
13476;BME280;6810;63.824;20.288;2023-07-30T01:50:24;100019.72;;;16.14;76.06
13476;BME280;6810;63.824;20.288;2023-07-30T01:53:11;100018.03;;;16.13;75.95
13476;BME280;6810;63.824;20.288;2023-07-30T01:55:58;100019.88;;;16.13;76.02
13476;BME280;6810;63.824;20.288;2023-07-30T01:58:45;100017.06;;;16.05;76.42
13476;BME280;6810;63.824;20.288;2023-07-30T02:01:32;100012.50;;;16.05;76.45
13476;BME280;6810;63.824;20.288;2023-07-30T02:04:20;100009.97;;;16.04;76.26
13476;BME280;6810;63.824;20.288;2023-07-30T02:07:07;100022.16;;;16.08;76.17
13476;BME280;6810;63.824;20.288;2023-07-30T02:09:54;100025.00;;;16.06;76.78
13476;BME280;6810;63.824;20.288;2023-07-30T02:12:41;100025.97;;;16.05;76.70
13476;BME280;6810;63.824;20.288;2023-07-30T02:15:28;100025.13;;;16.05;76.67
13476;BME280;6810;63.824;20.288;2023-07-30T02:18:15;100027.91;;;16.03;76.65
13476;BME280;6810;63.824;20.288;2023-07-30T02:21:02;100026.25;;;16.02;76.96
13476;BME280;6810;63.824;20.288;2023-07-30T02:23:49;100031.63;;;16.02;76.74
13476;BME280;6810;63.824;20.288;2023-07-30T02:26:37;100031.91;;;15.99;76.51
13476;BME280;6810;63.824;20.288;2023-07-30T02:29:24;100032.63;;;16.01;76.65
13476;BME280;6810;63.824;20.288;2023-07-30T02:32:11;100039.81;;;16.01;77.64
13476;BME280;6810;63.824;20.288;2023-07-30T02:34:58;100041.78;;;15.99;77.77
13476;BME280;6810;63.824;20.288;2023-07-30T02:37:46;100044.19;;;16.02;77.39
13476;BME280;6810;63.824;20.288;2023-07-30T02:40:33;100051.44;;;16.01;77.17
13476;BME280;6810;63.824;20.288;2023-07-30T02:43:20;100056.38;;;15.96;77.63
13476;BME280;6810;63.824;20.288;2023-07-30T02:46:07;100062.59;;;15.87;77.53
13476;BME280;6810;63.824;20.288;2023-07-30T02:48:55;100069.50;;;15.80;77.85
13476;BME280;6810;63.824;20.288;2023-07-30T02:51:42;100066.09;;;15.78;78.67
13476;BME280;6810;63.824;20.288;2023-07-30T02:54:29;100070.22;;;15.82;78.60
13476;BME280;6810;63.824;20.288;2023-07-30T02:57:16;100076.03;;;15.87;78.63
13476;BME280;6810;63.824;20.288;2023-07-30T03:00:03;100075.59;;;15.92;78.74
13476;BME280;6810;63.824;20.288;2023-07-30T03:02:50;100083.13;;;15.98;79.02
13476;BME280;6810;63.824;20.288;2023-07-30T03:05:41;100082.69;;;16.02;78.91
13476;BME280;6810;63.824;20.288;2023-07-30T03:08:28;100085.81;;;16.07;79.12
13476;BME280;6810;63.824;20.288;2023-07-30T03:11:15;100084.53;;;16.11;79.23
13476;BME280;6810;63.824;20.288;2023-07-30T03:14:02;100079.75;;;16.15;79.17
13476;BME280;6810;63.824;20.288;2023-07-30T03:16:50;100082.00;;;16.19;79.08
13476;BME280;6810;63.824;20.288;2023-07-30T03:19:37;100067.59;;;16.11;78.29
13476;BME280;6810;63.824;20.288;2023-07-30T03:22:24;100087.81;;;16.24;78.36
13476;BME280;6810;63.824;20.288;2023-07-30T03:25:11;100090.25;;;16.27;78.25
13476;BME280;6810;63.824;20.288;2023-07-30T03:27:59;100092.66;;;16.30;78.60
13476;BME280;6810;63.824;20.288;2023-07-30T03:30:46;100097.75;;;16.33;78.42
13476;BME280;6810;63.824;20.288;2023-07-30T03:33:34;100100.00;;;16.38;78.54
13476;BME280;6810;63.824;20.288;2023-07-30T03:36:21;100101.28;;;16.43;78.47
13476;BME280;6810;63.824;20.288;2023-07-30T03:39:08;100103.72;;;16.46;78.80
13476;BME280;6810;63.824;20.288;2023-07-30T03:41:55;100084.88;;;16.37;78.21
13476;BME280;6810;63.824;20.288;2023-07-30T03:44:42;100108.53;;;16.52;78.85
13476;BME280;6810;63.824;20.288;2023-07-30T03:47:30;100111.66;;;16.57;78.75
13476;BME280;6810;63.824;20.288;2023-07-30T03:50:17;100101.47;;;16.61;78.81
13476;BME280;6810;63.824;20.288;2023-07-30T03:53:05;100098.34;;;16.65;78.56
13476;BME280;6810;63.824;20.288;2023-07-30T03:55:53;100100.75;;;16.68;78.42
13476;BME280;6810;63.824;20.288;2023-07-30T03:58:41;100093.09;;;16.73;78.60
13476;BME280;6810;63.824;20.288;2023-07-30T04:01:28;100088.97;;;16.79;78.76
13476;BME280;6810;63.824;20.288;2023-07-30T04:04:15;100091.22;;;16.83;77.96
13476;BME280;6810;63.824;20.288;2023-07-30T04:07:02;100092.63;;;16.87;77.89
13476;BME280;6810;63.824;20.288;2023-07-30T04:09:49;100084.09;;;16.92;78.26
13476;BME280;6810;63.824;20.288;2023-07-30T04:12:36;100066.84;;;16.85;77.58
13476;BME280;6810;63.824;20.288;2023-07-30T04:15:23;100096.84;;;16.99;77.30
13476;BME280;6810;63.824;20.288;2023-07-30T04:18:10;100100.97;;;17.03;77.84
13476;BME280;6810;63.824;20.288;2023-07-30T04:20:57;100098.97;;;17.05;77.08
13476;BME280;6810;63.824;20.288;2023-07-30T04:23:45;100101.25;;;17.10;76.99
13476;BME280;6810;63.824;20.288;2023-07-30T04:26:33;100094.69;;;17.12;77.45
13476;BME280;6810;63.824;20.288;2023-07-30T04:29:21;100076.00;;;17.11;77.07
13476;BME280;6810;63.824;20.288;2023-07-30T04:32:08;100084.19;;;17.19;76.44
13476;BME280;6810;63.824;20.288;2023-07-30T04:34:56;100090.97;;;17.23;76.22
13476;BME280;6810;63.824;20.288;2023-07-30T04:37:43;100087.13;;;17.25;75.58
13476;BME280;6810;63.824;20.288;2023-07-30T04:40:30;100096.63;;;17.29;75.99
13476;BME280;6810;63.824;20.288;2023-07-30T04:43:17;100095.19;;;17.35;75.21
13476;BME280;6810;63.824;20.288;2023-07-30T04:46:04;100086.69;;;17.30;75.32
13476;BME280;6810;63.824;20.288;2023-07-30T04:48:52;100090.38;;;17.39;74.80
13476;BME280;6810;63.824;20.288;2023-07-30T04:51:39;100089.06;;;17.43;74.28
13476;BME280;6810;63.824;20.288;2023-07-30T04:54:26;100080.72;;;17.46;74.87
13476;BME280;6810;63.824;20.288;2023-07-30T04:57:13;100081.28;;;17.49;74.01
13476;BME280;6810;63.824;20.288;2023-07-30T05:00:01;100078.28;;;17.52;73.46
13476;BME280;6810;63.824;20.288;2023-07-30T05:02:48;100053.19;;;17.42;74.01
13476;BME280;6810;63.824;20.288;2023-07-30T05:05:35;100070.03;;;17.54;73.44
13476;BME280;6810;63.824;20.288;2023-07-30T05:08:22;100077.38;;;17.61;72.91
13476;BME280;6810;63.824;20.288;2023-07-30T05:11:09;100088.56;;;17.66;73.21
13476;BME280;6810;63.824;20.288;2023-07-30T05:13:56;100092.81;;;17.69;72.88
13476;BME280;6810;63.824;20.288;2023-07-30T05:16:43;100094.38;;;17.71;71.79
13476;BME280;6810;63.824;20.288;2023-07-30T05:19:30;100097.59;;;17.75;72.10
13476;BME280;6810;63.824;20.288;2023-07-30T05:22:17;100097.28;;;17.78;72.51
13476;BME280;6810;63.824;20.288;2023-07-30T05:25:05;100102.38;;;17.81;72.18
13476;BME280;6810;63.824;20.288;2023-07-30T05:27:52;100102.22;;;17.82;71.66
13476;BME280;6810;63.824;20.288;2023-07-30T05:30:39;100083.13;;;17.76;71.34
13476;BME280;6810;63.824;20.288;2023-07-30T05:33:26;100106.56;;;17.93;71.52
13476;BME280;6810;63.824;20.288;2023-07-30T05:36:13;100105.44;;;17.95;70.55
13476;BME280;6810;63.824;20.288;2023-07-30T05:39:00;100102.28;;;18.00;71.17
13476;BME280;6810;63.824;20.288;2023-07-30T05:41:47;100106.38;;;18.04;71.03
13476;BME280;6810;63.824;20.288;2023-07-30T05:44:34;100081.47;;;17.92;70.73
13476;BME280;6810;63.824;20.288;2023-07-30T05:47:21;100111.88;;;18.12;70.33
13476;BME280;6810;63.824;20.288;2023-07-30T05:50:08;100089.56;;;18.10;69.71
13476;BME280;6810;63.824;20.288;2023-07-30T05:52:55;100092.22;;;18.19;69.43
13476;BME280;6810;63.824;20.288;2023-07-30T05:55:43;100100.00;;;18.22;69.61
13476;BME280;6810;63.824;20.288;2023-07-30T05:58:30;100101.00;;;18.21;69.30
13476;BME280;6810;63.824;20.288;2023-07-30T06:01:17;100103.94;;;18.28;68.70
13476;BME280;6810;63.824;20.288;2023-07-30T06:04:05;100094.53;;;18.32;68.28
13476;BME280;6810;63.824;20.288;2023-07-30T06:06:52;100095.09;;;18.35;68.29
13476;BME280;6810;63.824;20.288;2023-07-30T06:09:39;100103.75;;;18.39;67.12
13476;BME280;6810;63.824;20.288;2023-07-30T06:12:26;100099.91;;;18.41;67.23
13476;BME280;6810;63.824;20.288;2023-07-30T06:15:14;100115.78;;;18.44;66.73
13476;BME280;6810;63.824;20.288;2023-07-30T06:18:01;100099.63;;;18.35;66.40
13476;BME280;6810;63.824;20.288;2023-07-30T06:20:49;100114.63;;;18.47;65.56
13476;BME280;6810;63.824;20.288;2023-07-30T06:23:36;100121.56;;;18.49;66.08
13476;BME280;6810;63.824;20.288;2023-07-30T06:26:23;100126.47;;;18.54;65.19
13476;BME280;6810;63.824;20.288;2023-07-30T06:29:10;100129.59;;;18.59;65.25
13476;BME280;6810;63.824;20.288;2023-07-30T06:31:57;100126.56;;;18.62;65.65
13476;BME280;6810;63.824;20.288;2023-07-30T06:34:44;100124.41;;;18.65;65.71
13476;BME280;6810;63.824;20.288;2023-07-30T06:37:31;100116.00;;;18.68;65.49
13476;BME280;6810;63.824;20.288;2023-07-30T06:40:18;100118.56;;;18.70;64.84
13476;BME280;6810;63.824;20.288;2023-07-30T06:43:06;100120.94;;;18.73;64.54
13476;BME280;6810;63.824;20.288;2023-07-30T06:45:53;100117.94;;;18.76;65.25
13476;BME280;6810;63.824;20.288;2023-07-30T06:48:40;100117.63;;;18.79;64.21
13476;BME280;6810;63.824;20.288;2023-07-30T06:51:27;100113.06;;;18.79;64.65
13476;BME280;6810;63.824;20.288;2023-07-30T06:54:14;100115.81;;;18.87;64.31
13476;BME280;6810;63.824;20.288;2023-07-30T06:57:05;100109.75;;;18.85;64.72
13476;BME280;6810;63.824;20.288;2023-07-30T06:59:52;100115.88;;;18.95;64.08
13476;BME280;6810;63.824;20.288;2023-07-30T07:02:39;100111.50;;;18.94;63.83
13476;BME280;6810;63.824;20.288;2023-07-30T07:05:26;100124.22;;;19.02;63.55
13476;BME280;6810;63.824;20.288;2023-07-30T07:08:13;100131.00;;;19.06;63.82
13476;BME280;6810;63.824;20.288;2023-07-30T07:11:00;100120.72;;;19.10;62.91
13476;BME280;6810;63.824;20.288;2023-07-30T07:13:48;100106.34;;;19.09;63.16
13476;BME280;6810;63.824;20.288;2023-07-30T07:16:34;100124.31;;;19.18;62.38
13476;BME280;6810;63.824;20.288;2023-07-30T07:19:22;100122.16;;;19.22;62.86
13476;BME280;6810;63.824;20.288;2023-07-30T07:22:09;100116.59;;;19.23;62.47
13476;BME280;6810;63.824;20.288;2023-07-30T07:24:56;100121.41;;;19.29;61.91
13476;BME280;6810;63.824;20.288;2023-07-30T07:27:43;100123.78;;;19.32;62.08
13476;BME280;6810;63.824;20.288;2023-07-30T07:30:30;100126.16;;;19.35;61.46
13476;BME280;6810;63.824;20.288;2023-07-30T07:33:17;100130.25;;;19.39;61.37
13476;BME280;6810;63.824;20.288;2023-07-30T07:36:05;100128.91;;;19.43;61.75
13476;BME280;6810;63.824;20.288;2023-07-30T07:38:53;100135.69;;;19.47;61.81
13476;BME280;6810;63.824;20.288;2023-07-30T07:41:40;100132.50;;;19.52;61.23
13476;BME280;6810;63.824;20.288;2023-07-30T07:44:27;100137.44;;;19.56;61.37
13476;BME280;6810;63.824;20.288;2023-07-30T07:47:15;100135.09;;;19.61;60.49
13476;BME280;6810;63.824;20.288;2023-07-30T07:50:02;100134.63;;;19.66;60.13
13476;BME280;6810;63.824;20.288;2023-07-30T07:52:49;100132.28;;;19.71;60.76
13476;BME280;6810;63.824;20.288;2023-07-30T07:55:36;100126.38;;;19.75;60.70
13476;BME280;6810;63.824;20.288;2023-07-30T07:58:23;100124.06;;;19.80;60.98
13476;BME280;6810;63.824;20.288;2023-07-30T08:01:10;100127.41;;;19.82;60.63
13476;BME280;6810;63.824;20.288;2023-07-30T08:03:37;100122.53;;;19.86;61.05
13476;BME280;6810;63.824;20.288;2023-07-30T08:06:05;100125.78;;;19.89;60.90
13476;BME280;6810;63.824;20.288;2023-07-30T08:08:33;100131.56;;;19.94;61.64
13476;BME280;6810;63.824;20.288;2023-07-30T08:11:07;100127.66;;;19.97;61.24
13476;BME280;6810;63.824;20.288;2023-07-30T08:13:35;100117.88;;;20.04;60.80
13476;BME280;6810;63.824;20.288;2023-07-30T08:16:03;100130.09;;;20.08;60.63
13476;BME280;6810;63.824;20.288;2023-07-30T08:18:30;100126.03;;;20.12;61.09
13476;BME280;6810;63.824;20.288;2023-07-30T08:20:57;100121.81;;;20.17;60.21
13476;BME280;6810;63.824;20.288;2023-07-30T08:23:24;100113.88;;;20.16;60.22
13476;BME280;6810;63.824;20.288;2023-07-30T08:25:51;100130.66;;;20.27;60.28
13476;BME280;6810;63.824;20.288;2023-07-30T08:28:18;100123.06;;;20.31;59.81
13476;BME280;6810;63.824;20.288;2023-07-30T08:30:46;100122.41;;;20.37;59.67
13476;BME280;6810;63.824;20.288;2023-07-30T08:33:13;100117.97;;;20.36;60.02
13476;BME280;6810;63.824;20.288;2023-07-30T08:35:40;100094.81;;;20.33;60.14
13476;BME280;6810;63.824;20.288;2023-07-30T08:38:08;100119.03;;;20.51;59.83
13476;BME280;6810;63.824;20.288;2023-07-30T08:40:35;100118.22;;;20.58;59.88
13476;BME280;6810;63.824;20.288;2023-07-30T08:43:02;100088.06;;;20.45;60.11
13476;BME280;6810;63.824;20.288;2023-07-30T08:45:31;100132.78;;;20.74;60.35
13476;BME280;6810;63.824;20.288;2023-07-30T08:47:58;100120.75;;;20.76;59.99
13476;BME280;6810;63.824;20.288;2023-07-30T08:50:26;100117.03;;;20.85;60.26
13476;BME280;6810;63.824;20.288;2023-07-30T08:52:55;100115.69;;;20.89;59.74
13476;BME280;6810;63.824;20.288;2023-07-30T08:55:22;100116.34;;;20.91;59.80
13476;BME280;6810;63.824;20.288;2023-07-30T08:57:51;100128.41;;;20.97;59.67
13476;BME280;6810;63.824;20.288;2023-07-30T09:00:19;100120.94;;;20.99;59.72
13476;BME280;6810;63.824;20.288;2023-07-30T09:02:52;100130.44;;;21.03;60.04
13476;BME280;6810;63.824;20.288;2023-07-30T09:05:20;100138.06;;;21.07;59.66
13476;BME280;6810;63.824;20.288;2023-07-30T09:07:48;100139.25;;;21.13;59.76
13476;BME280;6810;63.824;20.288;2023-07-30T09:10:15;100141.44;;;21.17;59.78
13476;BME280;6810;63.824;20.288;2023-07-30T09:12:43;100141.94;;;21.21;59.00
13476;BME280;6810;63.824;20.288;2023-07-30T09:15:13;100138.03;;;21.23;59.21
13476;BME280;6810;63.824;20.288;2023-07-30T09:17:40;100141.94;;;21.29;58.85
13476;BME280;6810;63.824;20.288;2023-07-30T09:20:07;100132.63;;;21.23;58.37
13476;BME280;6810;63.824;20.288;2023-07-30T09:22:35;100149.41;;;21.35;58.16
13476;BME280;6810;63.824;20.288;2023-07-30T09:25:07;100151.09;;;21.36;57.89
13476;BME280;6810;63.824;20.288;2023-07-30T09:27:35;100155.47;;;21.37;57.89
13476;BME280;6810;63.824;20.288;2023-07-30T09:30:03;100155.13;;;21.40;58.32
13476;BME280;6810;63.824;20.288;2023-07-30T09:32:34;100153.63;;;21.45;57.98
13476;BME280;6810;63.824;20.288;2023-07-30T09:37:37;100156.63;;;21.58;57.92
13476;BME280;6810;63.824;20.288;2023-07-30T09:40:06;100156.28;;;21.61;58.02
13476;BME280;6810;63.824;20.288;2023-07-30T09:42:34;100158.47;;;21.66;57.81
13476;BME280;6810;63.824;20.288;2023-07-30T09:45:05;100157.13;;;21.70;57.68
13476;BME280;6810;63.824;20.288;2023-07-30T09:47:37;100151.69;;;21.70;57.71
13476;BME280;6810;63.824;20.288;2023-07-30T09:50:04;100161.97;;;21.90;57.52
13476;BME280;6810;63.824;20.288;2023-07-30T09:52:32;100163.47;;;22.01;57.40
13476;BME280;6810;63.824;20.288;2023-07-30T09:55:00;100164.16;;;22.03;57.30
13476;BME280;6810;63.824;20.288;2023-07-30T09:57:27;100158.47;;;22.20;57.29
13476;BME280;6810;63.824;20.288;2023-07-30T09:59:54;100169.53;;;22.50;56.49
13476;BME280;6810;63.824;20.288;2023-07-30T10:02:23;100166.72;;;22.66;56.70
13476;BME280;6810;63.824;20.288;2023-07-30T10:04:53;100167.63;;;22.81;55.76
13476;BME280;6810;63.824;20.288;2023-07-30T10:07:24;100171.72;;;22.85;55.64
13476;BME280;6810;63.824;20.288;2023-07-30T10:09:55;100174.53;;;22.91;56.04
13476;BME280;6810;63.824;20.288;2023-07-30T10:12:28;100163.28;;;22.94;55.51
13476;BME280;6810;63.824;20.288;2023-07-30T10:14:57;100176.28;;;23.07;55.04
13476;BME280;6810;63.824;20.288;2023-07-30T10:17:24;100172.81;;;23.13;55.10
13476;BME280;6810;63.824;20.288;2023-07-30T10:19:52;100176.16;;;23.23;55.54
13476;BME280;6810;63.824;20.288;2023-07-30T10:22:22;100180.97;;;23.35;55.03
13476;BME280;6810;63.824;20.288;2023-07-30T10:24:56;100176.13;;;23.45;54.11
13476;BME280;6810;63.824;20.288;2023-07-30T10:27:26;100158.41;;;23.49;54.83
13476;BME280;6810;63.824;20.288;2023-07-30T10:30:18;100176.84;;;23.76;53.98
13476;BME280;6810;63.824;20.288;2023-07-30T10:38:21;100180.81;;;24.18;53.24
13476;BME280;6810;63.824;20.288;2023-07-30T10:41:13;100172.78;;;24.31;52.40
13476;BME280;6810;63.824;20.288;2023-07-30T10:46:13;100178.66;;;24.49;51.70
13476;BME280;6810;63.824;20.288;2023-07-30T10:48:42;100175.13;;;24.48;51.16
13476;BME280;6810;63.824;20.288;2023-07-30T10:51:14;100178.28;;;24.52;51.79
13476;BME280;6810;63.824;20.288;2023-07-30T10:53:43;100182.34;;;24.56;51.61
13476;BME280;6810;63.824;20.288;2023-07-30T10:56:10;100169.34;;;24.58;51.37
13476;BME280;6810;63.824;20.288;2023-07-30T10:58:39;100176.00;;;24.70;51.48
13476;BME280;6810;63.824;20.288;2023-07-30T11:01:07;100158.72;;;24.63;51.40
13476;BME280;6810;63.824;20.288;2023-07-30T11:03:36;100167.91;;;24.76;51.09
13476;BME280;6810;63.824;20.288;2023-07-30T11:06:05;100177.72;;;24.92;51.14
13476;BME280;6810;63.824;20.288;2023-07-30T11:11:06;100172.53;;;25.18;50.11
13476;BME280;6810;63.824;20.288;2023-07-30T11:13:41;100173.13;;;25.34;50.40
13476;BME280;6810;63.824;20.288;2023-07-30T11:16:10;100166.28;;;25.45;50.44
13476;BME280;6810;63.824;20.288;2023-07-30T11:18:38;100175.91;;;25.69;50.24
13476;BME280;6810;63.824;20.288;2023-07-30T11:21:07;100125.19;;;25.53;48.77
13476;BME280;6810;63.824;20.288;2023-07-30T11:23:36;100178.91;;;26.01;48.21
13476;BME280;6810;63.824;20.288;2023-07-30T11:26:05;100178.31;;;26.12;48.13
13476;BME280;6810;63.824;20.288;2023-07-30T11:28:34;100177.72;;;26.23;47.28
13476;BME280;6810;63.824;20.288;2023-07-30T11:31:10;100173.53;;;26.27;46.96
13476;BME280;6810;63.824;20.288;2023-07-30T11:33:45;100168.53;;;26.37;47.08
13476;BME280;6810;63.824;20.288;2023-07-30T11:36:16;100173.41;;;26.42;46.40
13476;BME280;6810;63.824;20.288;2023-07-30T11:38:45;100173.59;;;26.40;46.34
13476;BME280;6810;63.824;20.288;2023-07-30T11:41:13;100179.09;;;26.47;45.82
13476;BME280;6810;63.824;20.288;2023-07-30T11:43:43;100174.91;;;26.51;46.22
13476;BME280;6810;63.824;20.288;2023-07-30T11:46:15;100181.44;;;26.56;45.22
13476;BME280;6810;63.824;20.288;2023-07-30T11:48:45;100136.97;;;26.28;45.12
13476;BME280;6810;63.824;20.288;2023-07-30T11:53:59;100180.41;;;26.57;45.51
13476;BME280;6810;63.824;20.288;2023-07-30T11:56:29;100180.66;;;26.69;45.33
13476;BME280;6810;63.824;20.288;2023-07-30T11:59:07;100179.63;;;26.76;44.55
13476;BME280;6810;63.824;20.288;2023-07-30T12:01:35;100140.06;;;26.66;44.12
13476;BME280;6810;63.824;20.288;2023-07-30T12:04:05;100176.09;;;26.89;43.54
13476;BME280;6810;63.824;20.288;2023-07-30T12:06:52;100184.09;;;26.90;43.81
13476;BME280;6810;63.824;20.288;2023-07-30T12:09:24;100177.16;;;26.94;43.41
13476;BME280;6810;63.824;20.288;2023-07-30T12:12:00;100178.66;;;26.97;43.01
13476;BME280;6810;63.824;20.288;2023-07-30T12:14:29;100182.81;;;26.93;42.74
13476;BME280;6810;63.824;20.288;2023-07-30T12:17:08;100183.03;;;26.91;42.74
13476;BME280;6810;63.824;20.288;2023-07-30T12:19:36;100182.00;;;26.92;42.45
13476;BME280;6810;63.824;20.288;2023-07-30T12:22:03;100188.09;;;26.94;43.03
13476;BME280;6810;63.824;20.288;2023-07-30T12:24:30;100189.38;;;26.92;43.29
13476;BME280;6810;63.824;20.288;2023-07-30T12:27:01;100186.22;;;26.95;42.51
13476;BME280;6810;63.824;20.288;2023-07-30T12:29:28;100151.66;;;26.74;42.87
13476;BME280;6810;63.824;20.288;2023-07-30T12:31:55;100192.75;;;26.94;42.30
13476;BME280;6810;63.824;20.288;2023-07-30T12:34:24;100181.78;;;26.87;43.02
13476;BME280;6810;63.824;20.288;2023-07-30T12:36:51;100185.78;;;26.85;42.32
13476;BME280;6810;63.824;20.288;2023-07-30T12:39:18;100187.63;;;26.78;42.87
13476;BME280;6810;63.824;20.288;2023-07-30T12:41:45;100188.69;;;26.77;42.96
13476;BME280;6810;63.824;20.288;2023-07-30T12:44:12;100179.88;;;26.81;42.79
13476;BME280;6810;63.824;20.288;2023-07-30T12:46:40;100179.03;;;26.87;42.42
13476;BME280;6810;63.824;20.288;2023-07-30T12:49:06;100190.41;;;26.84;42.54
13476;BME280;6810;63.824;20.288;2023-07-30T12:51:34;100189.53;;;26.84;42.77
13476;BME280;6810;63.824;20.288;2023-07-30T12:54:01;100184.94;;;26.84;42.32
13476;BME280;6810;63.824;20.288;2023-07-30T12:56:28;100192.31;;;26.90;42.25
13476;BME280;6810;63.824;20.288;2023-07-30T12:58:55;100190.22;;;26.92;42.22
13476;BME280;6810;63.824;20.288;2023-07-30T13:01:22;100191.88;;;26.93;42.12
13476;BME280;6810;63.824;20.288;2023-07-30T13:03:50;100184.50;;;26.87;41.81
13476;BME280;6810;63.824;20.288;2023-07-30T13:06:18;100187.22;;;26.81;42.22
13476;BME280;6810;63.824;20.288;2023-07-30T13:08:45;100168.25;;;26.66;41.97
13476;BME280;6810;63.824;20.288;2023-07-30T13:11:13;100187.00;;;26.69;41.79
13476;BME280;6810;63.824;20.288;2023-07-30T13:13:39;100184.88;;;26.65;42.06
13476;BME280;6810;63.824;20.288;2023-07-30T13:16:07;100188.41;;;26.59;42.57
13476;BME280;6810;63.824;20.288;2023-07-30T13:18:34;100185.63;;;26.52;43.24
13476;BME280;6810;63.824;20.288;2023-07-30T13:21:01;100182.06;;;26.45;43.17
13476;BME280;6810;63.824;20.288;2023-07-30T13:23:28;100183.47;;;26.35;43.28
13476;BME280;6810;63.824;20.288;2023-07-30T13:25:55;100185.72;;;26.25;43.54
13476;BME280;6810;63.824;20.288;2023-07-30T13:28:22;100190.34;;;26.18;43.69
13476;BME280;6810;63.824;20.288;2023-07-30T13:30:50;100194.06;;;26.10;43.61
13476;BME280;6810;63.824;20.288;2023-07-30T13:33:18;100188.47;;;25.97;43.72
13476;BME280;6810;63.824;20.288;2023-07-30T13:35:45;100191.97;;;25.85;43.80
13476;BME280;6810;63.824;20.288;2023-07-30T13:38:12;100192.34;;;25.75;44.31
13476;BME280;6810;63.824;20.288;2023-07-30T13:40:39;100198.97;;;25.66;44.76
13476;BME280;6810;63.824;20.288;2023-07-30T13:43:06;100194.09;;;25.55;45.26
13476;BME280;6810;63.824;20.288;2023-07-30T13:45:33;100195.91;;;25.48;45.37
13476;BME280;6810;63.824;20.288;2023-07-30T13:48:01;100202.75;;;25.37;45.34
13476;BME280;6810;63.824;20.288;2023-07-30T13:50:28;100197.34;;;25.23;45.87
13476;BME280;6810;63.824;20.288;2023-07-30T13:52:55;100184.34;;;25.04;46.12
13476;BME280;6810;63.824;20.288;2023-07-30T13:55:22;100194.88;;;25.07;46.58
13476;BME280;6810;63.824;20.288;2023-07-30T13:57:49;100199.22;;;25.01;47.23